Henning, Tennessee
Current Conditions -  °F | °C
As of 4:53 AM on Wednesday 22 Oct 2014 (Local Time) from KHKA Reporting Station
Clear Clear  
Wind Chill: 44°   Ceiling: Unl
Heat Index: 47°   Visibility: 10mi
Dew Point: 44°   Wind: 7mph
Humidity: 90%   Direction: 50°NE
Pressure: 30.19"   Gusts: NA
Location:  35.67°N, 89.57°W
Report Text: KHKA 220953Z AUTO 05006KT 10SM CLR 08/07 A3019 RMK AO2 SLP222 T00830067
Loading
Personal Weather Stations






























Interactive Weather Map
Tropical Storm Tracking
New forecast layout! Learn more

10-Day Weather Forecast

Advertisements
Track Severe Weather on mobile